Time;durP1;ratioP1;P1;durP2;ratioP2;P2;SDS_P1;SDS_P2;PMS_P1;PMS_P2;Temp;Humidity;BMP_temperature;BMP_pressure;BME280_temperature;BME280_humidity;BME280_pressure;Samples;Min_cycle;Max_cycle;Signal;HPM_P1;HPM_P2
2023/03/15 00:02:24;;;;;;;1.25;1.00;;;1.70;99.90;;;;;;4961109;28;20055;-64
2023/03/15 00:04:56;;;;;;;1.88;0.98;;;1.70;99.90;;;;;;4933757;29;20502;-64
2023/03/15 00:07:27;;;;;;;2.30;1.27;;;1.60;99.90;;;;;;4963251;28;20055;-64
2023/03/15 00:10:00;;;;;;;3.78;1.20;;;1.60;99.90;;;;;;4953701;28;20427;-64
2023/03/15 00:12:33;;;;;;;4.05;1.30;;;1.60;99.90;;;;;;4929614;29;20428;-64
2023/03/15 00:15:05;;;;;;;1.42;1.10;;;1.60;99.90;;;;;;4942508;29;20098;-63
2023/03/15 00:17:37;;;;;;;1.65;1.17;;;1.70;99.90;;;;;;4937695;29;20058;-63
2023/03/15 00:20:10;;;;;;;2.67;1.45;;;1.60;99.90;;;;;;4945899;29;20508;-64
2023/03/15 00:22:42;;;;;;;1.20;1.00;;;1.70;99.90;;;;;;4946505;29;20536;-63
2023/03/15 00:25:09;;;;;;;1.85;1.30;;;1.70;99.90;;;;;;4920881;29;20044;-64
2023/03/15 00:27:42;;;;;;;1.98;1.45;;;1.80;99.90;;;;;;4927080;29;20047;-65
2023/03/15 00:30:16;;;;;;;2.83;1.85;;;1.80;99.90;;;;;;4939182;29;20048;-67
2023/03/15 00:32:48;;;;;;;1.67;1.33;;;1.90;99.90;;;;;;4943673;29;20091;-64
2023/03/15 00:35:20;;;;;;;1.90;1.50;;;1.90;99.90;;;;;;4945139;29;20424;-64
2023/03/15 00:37:55;;;;;;;2.20;1.45;;;1.90;99.90;;;;;;4948500;29;20675;-64
2023/03/15 00:40:27;;;;;;;2.40;1.45;;;2.00;99.90;;;;;;4963195;28;20501;-64
2023/03/15 00:42:59;;;;;;;5.22;2.00;;;1.90;99.90;;;;;;4924751;29;20151;-64
2023/03/15 00:45:31;;;;;;;1.95;1.55;;;2.00;99.90;;;;;;4963338;28;20062;-64
2023/03/15 00:47:58;;;;;;;2.90;1.80;;;2.00;99.90;;;;;;4958177;28;20047;-63
2023/03/15 00:50:30;;;;;;;2.42;1.95;;;2.00;99.90;;;;;;4940909;29;20052;-64
2023/03/15 00:53:01;;;;;;;3.15;2.40;;;2.00;99.90;;;;;;4930583;29;20095;-64
2023/03/15 00:55:34;;;;;;;2.97;2.10;;;2.00;99.90;;;;;;4918632;29;20047;-64
2023/03/15 00:58:06;;;;;;;1.60;1.50;;;2.00;99.90;;;;;;4949380;29;20043;-64
2023/03/15 01:00:38;;;;;;;2.30;2.10;;;2.00;99.90;;;;;;4938468;29;20051;-63
2023/03/15 01:03:10;;;;;;;2.33;1.80;;;2.10;99.90;;;;;;4947451;28;20058;-63
2023/03/15 01:05:42;;;;;;;4.45;2.35;;;2.10;99.90;;;;;;4939934;29;20051;-63
2023/03/15 01:08:14;;;;;;;4.25;1.50;;;2.10;99.90;;;;;;4945931;29;20707;-64
2023/03/15 01:10:40;;;;;;;5.05;2.25;;;2.20;99.90;;;;;;4967012;28;20405;-64
2023/03/15 01:13:12;;;;;;;4.55;1.95;;;2.20;99.90;;;;;;4940696;29;20043;-64
2023/03/15 01:15:47;;;;;;;1.80;1.42;;;2.20;99.90;;;;;;4957032;28;20051;-64
2023/03/15 01:18:19;;;;;;;3.15;2.00;;;2.10;99.90;;;;;;4919531;29;20067;-64
2023/03/15 01:20:50;;;;;;;2.67;2.05;;;2.20;99.90;;;;;;4940105;29;20527;-64
2023/03/15 01:23:24;;;;;;;4.30;2.15;;;2.10;99.90;;;;;;4929615;29;20054;-64
2023/03/15 01:26:01;;;;;;;3.50;2.30;;;2.10;99.90;;;;;;4925257;29;20468;-64
2023/03/15 01:28:33;;;;;;;3.75;2.90;;;2.20;99.90;;;;;;4947939;29;20055;-64
2023/03/15 01:31:05;;;;;;;2.67;2.08;;;2.20;99.90;;;;;;4944883;29;20058;-64
2023/03/15 01:33:37;;;;;;;4.03;3.20;;;2.20;99.90;;;;;;4952452;29;20118;-64
2023/03/15 01:36:10;;;;;;;3.58;2.50;;;2.20;99.90;;;;;;4928247;29;20047;-64
2023/03/15 01:38:37;;;;;;;2.60;2.08;;;2.20;99.90;;;;;;4945245;29;20048;-64
2023/03/15 01:41:14;;;;;;;1.83;1.60;;;2.30;99.90;;;;;;4951229;29;20044;-64
2023/03/15 01:43:46;;;;;;;1.65;1.30;;;2.20;99.90;;;;;;4946230;29;20055;-64
2023/03/15 01:46:23;;;;;;;1.48;1.38;;;2.20;99.90;;;;;;4929514;29;20050;-64
2023/03/15 01:49:14;;;;;;;1.17;0.85;;;2.20;99.90;;;;;;4946968;29;20047;-63
2023/03/15 01:51:58;;;;;;;1.08;0.88;;;2.00;99.90;;;;;;4946258;28;20050;-64
2023/03/15 01:55:04;;;;;;;2.13;1.00;;;1.90;99.90;;;;;;4939285;29;20125;-64
2023/03/15 01:57:54;;;;;;;0.95;0.75;;;1.90;99.90;;;;;;4936554;29;20067;-64
2023/03/15 02:00:23;;;;;;;0.93;0.63;;;1.80;99.90;;;;;;4942901;29;20047;-64
2023/03/15 02:03:29;;;;;;;3.28;0.90;;;1.80;99.90;;;;;;4948328;29;20428;-64
2023/03/15 02:06:02;;;;;;;0.85;0.68;;;1.80;99.90;;;;;;4947790;28;20055;-64
2023/03/15 02:08:48;;;;;;;1.20;0.73;;;1.70;99.90;;;;;;4942999;29;20052;-64
2023/03/15 02:11:23;;;;;;;1.20;0.75;;;1.70;99.90;;;;;;4943321;28;20065;-64
2023/03/15 02:13:57;;;;;;;1.10;0.88;;;1.70;99.90;;;;;;4952646;28;20598;-64
2023/03/15 02:16:26;;;;;;;1.50;1.00;;;1.70;99.90;;;;;;4948300;29;20416;-64
2023/03/15 02:19:08;;;;;;;2.35;1.27;;;1.70;99.90;;;;;;4948279;29;20466;-64
2023/03/15 02:21:40;;;;;;;3.15;0.95;;;1.70;99.90;;;;;;4930462;29;20044;-63
2023/03/15 02:24:28;;;;;;;1.88;0.93;;;1.70;99.90;;;;;;4928190;29;20114;-64
2023/03/15 02:27:00;;;;;;;2.05;0.90;;;1.70;99.90;;;;;;4933913;29;20054;-63
2023/03/15 02:29:32;;;;;;;1.73;1.02;;;1.70;99.90;;;;;;4929530;29;20058;-64
2023/03/15 02:32:04;;;;;;;2.65;0.93;;;1.70;99.90;;;;;;4960824;28;20364;-64
2023/03/15 02:34:36;;;;;;;3.45;1.45;;;1.70;99.90;;;;;;4955758;28;20139;-64
2023/03/15 02:37:08;;;;;;;5.57;1.17;;;1.60;99.90;;;;;;4961529;28;20067;-64
2023/03/15 02:39:35;;;;;;;2.28;1.30;;;1.50;99.90;;;;;;4955568;28;20043;-64
2023/03/15 02:42:07;;;;;;;2.25;1.13;;;1.50;99.90;;;;;;4949649;29;20042;-63
2023/03/15 02:44:43;;;;;;;1.75;0.90;;;1.50;99.90;;;;;;4944986;29;20114;-64
2023/03/15 02:47:25;;;;;;;2.47;1.13;;;1.50;99.90;;;;;;4955633;28;20118;-64
2023/03/15 02:49:57;;;;;;;2.60;1.15;;;1.50;99.90;;;;;;4910123;29;20051;-63
2023/03/15 02:52:29;;;;;;;3.97;1.33;;;1.40;99.90;;;;;;4961378;28;20062;-64
2023/03/15 02:55:01;;;;;;;3.30;1.23;;;1.40;99.90;;;;;;4922569;29;20048;-63
2023/03/15 02:57:33;;;;;;;2.17;0.88;;;1.40;99.90;;;;;;4958908;28;20053;-63
2023/03/15 03:00:13;;;;;;;2.90;1.13;;;1.30;99.90;;;;;;4945739;28;20055;-63
2023/03/15 03:02:46;;;;;;;2.78;1.10;;;1.30;99.90;;;;;;4945255;29;20047;-63
2023/03/15 03:05:18;;;;;;;3.80;1.42;;;1.30;99.90;;;;;;4949533;29;20408;-63
2023/03/15 03:07:50;;;;;;;4.60;1.75;;;1.30;99.90;;;;;;4928848;29;20121;-63
2023/03/15 03:10:19;;;;;;;3.17;1.33;;;1.40;99.90;;;;;;4960643;28;20047;-63
2023/03/15 03:12:54;;;;;;;2.33;1.10;;;1.40;99.90;;;;;;4958519;28;20043;-63
2023/03/15 03:15:31;;;;;;;3.53;2.28;;;1.30;99.90;;;;;;4921772;29;20079;-64
2023/03/15 03:18:03;;;;;;;3.00;1.50;;;1.30;99.90;;;;;;4937812;29;20044;-64
2023/03/15 03:20:34;;;;;;;2.17;1.08;;;1.30;99.90;;;;;;4949348;28;20052;-63
2023/03/15 03:23:06;;;;;;;1.70;1.05;;;1.40;99.90;;;;;;4945483;29;20397;-63
2023/03/15 03:25:38;;;;;;;3.10;1.35;;;1.30;99.90;;;;;;4945481;28;20040;-63
2023/03/15 03:28:10;;;;;;;1.70;0.90;;;1.30;99.90;;;;;;4942605;29;20043;-63
2023/03/15 03:30:42;;;;;;;1.70;1.17;;;1.30;99.90;;;;;;4964883;28;20568;-63
2023/03/15 03:33:15;;;;;;;2.80;1.27;;;1.30;99.90;;;;;;4945559;29;20587;-63
2023/03/15 03:35:47;;;;;;;4.32;2.05;;;1.30;99.90;;;;;;4959092;28;20114;-63
2023/03/15 03:38:19;;;;;;;3.42;2.47;;;1.30;99.90;;;;;;4945204;29;20055;-63
2023/03/15 03:40:54;;;;;;;2.63;1.20;;;1.20;99.90;;;;;;4931534;29;20571;-63
2023/03/15 03:43:29;;;;;;;2.42;1.05;;;1.20;99.90;;;;;;4968977;28;20055;-63
2023/03/15 03:46:03;;;;;;;3.58;1.40;;;1.20;99.90;;;;;;4960915;28;20054;-63
2023/03/15 03:48:38;;;;;;;2.85;1.33;;;1.10;99.90;;;;;;4948549;28;20058;-63
2023/03/15 03:51:10;;;;;;;5.68;1.38;;;1.10;99.90;;;;;;4920740;29;20074;-64
2023/03/15 03:53:41;;;;;;;2.67;1.40;;;1.10;99.90;;;;;;4941038;29;20054;-63
2023/03/15 03:56:13;;;;;;;3.25;1.45;;;1.10;99.90;;;;;;4961006;28;20046;-63
2023/03/15 03:58:45;;;;;;;2.33;1.17;;;1.10;99.90;;;;;;4952486;29;20039;-63
2023/03/15 04:01:37;;;;;;;5.30;1.90;;;1.10;99.90;;;;;;4948291;29;20118;-63
2023/03/15 04:04:13;;;;;;;2.45;1.38;;;1.10;99.90;;;;;;4942160;29;20074;-63
2023/03/15 04:06:45;;;;;;;1.92;1.15;;;1.00;99.90;;;;;;4963050;28;20462;-63
2023/03/15 04:09:23;;;;;;;3.42;1.40;;;1.10;99.90;;;;;;4944217;29;20078;-64
2023/03/15 04:11:55;;;;;;;2.90;1.20;;;1.10;99.90;;;;;;4964383;28;20055;-63
2023/03/15 04:14:28;;;;;;;2.75;1.33;;;1.10;99.90;;;;;;4946364;29;20113;-63
2023/03/15 04:17:02;;;;;;;1.88;1.20;;;1.00;99.90;;;;;;4929557;29;20560;-63
2023/03/15 04:19:30;;;;;;;5.53;1.77;;;1.00;99.90;;;;;;4961981;28;20088;-63
2023/03/15 04:21:57;;;;;;;2.83;1.63;;;1.00;99.90;;;;;;4952536;28;20036;-63
2023/03/15 04:24:38;;;;;;;7.70;2.20;;;1.00;99.90;;;;;;4926190;29;20054;-63
2023/03/15 04:27:30;;;;;;;6.47;2.33;;;1.00;99.90;;;;;;4931822;29;20047;-63
2023/03/15 04:30:16;;;;;;;4.78;2.35;;;1.00;99.90;;;;;;4967350;28;20050;-63
2023/03/15 04:33:18;;;;;;;5.00;2.45;;;0.90;99.90;;;;;;4938150;29;20056;-63
2023/03/15 04:36:01;;;;;;;5.53;2.55;;;0.90;99.90;;;;;;4938868;29;20047;-63
2023/03/15 04:39:11;;;;;;;5.95;2.70;;;0.80;99.90;;;;;;4939898;29;20051;-63
2023/03/15 04:42:03;;;;;;;5.82;2.65;;;0.80;99.90;;;;;;4944027;29;20062;-63
2023/03/15 04:45:03;;;;;;;7.03;2.80;;;0.80;99.90;;;;;;4934925;29;20541;-63
2023/03/15 04:47:51;;;;;;;6.25;3.33;;;0.80;99.90;;;;;;4929312;29;20507;-63
2023/03/15 04:50:38;;;;;;;7.05;2.95;;;0.80;99.90;;;;;;4941759;29;20116;-63
2023/03/15 04:53:21;;;;;;;6.05;3.80;;;0.70;99.90;;;;;;4948582;29;20419;-63
2023/03/15 04:56:12;;;;;;;8.20;4.10;;;0.70;99.90;;;;;;4928001;29;20043;-63
2023/03/15 04:59:04;;;;;;;6.05;3.50;;;0.70;99.90;;;;;;4939687;29;20166;-63
2023/03/15 05:02:10;;;;;;;6.55;3.83;;;0.70;99.90;;;;;;4927007;28;20055;-63
2023/03/15 05:04:55;;;;;;;7.03;3.90;;;0.70;99.90;;;;;;4950852;28;20169;-62
2023/03/15 05:07:56;;;;;;;7.78;4.20;;;0.70;99.90;;;;;;4941050;28;20048;-63
2023/03/15 05:10:40;;;;;;;11.80;4.43;;;0.80;99.90;;;;;;4946528;28;20055;-63
2023/03/15 05:13:50;;;;;;;8.25;3.97;;;0.80;99.90;;;;;;4931983;29;20052;-63
2023/03/15 05:16:34;;;;;;;14.05;4.85;;;0.80;99.90;;;;;;4932912;29;20047;-63
2023/03/15 05:19:33;;;;;;;8.77;4.53;;;0.80;99.90;;;;;;4945654;28;20425;-68
2023/03/15 05:22:24;;;;;;;6.60;4.47;;;0.90;99.90;;;;;;4955177;28;20074;-63
2023/03/15 05:25:28;;;;;;;9.55;5.07;;;1.00;99.90;;;;;;4923308;29;20111;-63
2023/03/15 05:28:17;;;;;;;8.82;4.60;;;1.00;99.90;;;;;;4932043;29;20055;-63
2023/03/15 05:31:08;;;;;;;8.85;4.85;;;1.00;99.90;;;;;;4936005;29;20409;-63
2023/03/15 05:34:08;;;;;;;12.50;5.20;;;0.90;99.90;;;;;;4899078;28;20127;-63
2023/03/15 05:36:56;;;;;;;14.93;6.07;;;0.90;99.90;;;;;;4957751;28;20129;-63
2023/03/15 05:39:35;;;;;;;7.53;4.63;;;0.90;99.90;;;;;;4972546;28;20432;-63
2023/03/15 05:42:26;;;;;;;12.15;6.00;;;0.90;99.90;;;;;;4949486;28;20046;-64
2023/03/15 05:45:21;;;;;;;10.75;5.75;;;0.90;99.90;;;;;;4942928;28;20539;-64
2023/03/15 05:48:15;;;;;;;11.10;5.28;;;0.90;99.90;;;;;;4945179;28;20055;-63
2023/03/15 05:51:06;;;;;;;11.43;5.47;;;0.90;99.90;;;;;;4949319;28;20058;-63
2023/03/15 05:53:47;;;;;;;11.65;6.07;;;0.90;99.90;;;;;;4921472;29;20688;-63
2023/03/15 05:56:50;;;;;;;12.52;5.18;;;0.90;99.90;;;;;;4930390;29;20051;-63
2023/03/15 05:59:33;;;;;;;7.97;4.80;;;0.90;99.90;;;;;;4926102;28;20046;-63
2023/03/15 06:02:15;;;;;;;11.45;5.90;;;0.90;99.90;;;;;;4948607;28;20052;-63
2023/03/15 06:05:06;;;;;;;11.73;5.53;;;0.90;99.90;;;;;;4947331;28;20051;-63
2023/03/15 06:07:38;;;;;;;11.80;6.13;;;0.90;99.90;;;;;;4950563;28;20051;-63
2023/03/15 06:10:10;;;;;;;16.15;6.82;;;0.90;99.90;;;;;;4942198;28;20683;-63
2023/03/15 06:12:43;;;;;;;12.55;6.05;;;1.00;99.90;;;;;;4943844;28;20051;-63
2023/03/15 06:15:17;;;;;;;11.10;5.90;;;1.00;99.90;;;;;;4926615;29;20048;-63
2023/03/15 06:17:50;;;;;;;10.90;6.03;;;1.10;99.90;;;;;;4954947;28;20047;-63
2023/03/15 06:20:22;;;;;;;12.00;6.20;;;1.10;99.90;;;;;;4944207;28;20126;-63
2023/03/15 06:22:55;;;;;;;11.15;7.45;;;1.10;99.90;;;;;;4930422;29;20047;-63
2023/03/15 06:25:38;;;;;;;15.48;6.40;;;1.10;99.90;;;;;;4929234;29;20040;-63
2023/03/15 06:28:10;;;;;;;9.93;6.63;;;1.00;99.90;;;;;;4940850;28;20056;-63
2023/03/15 06:30:48;;;;;;;11.90;7.15;;;1.00;99.90;;;;;;4958685;28;20042;-63
2023/03/15 06:33:26;;;;;;;11.82;6.53;;;1.00;99.90;;;;;;4965416;28;20107;-63
2023/03/15 06:35:53;;;;;;;15.02;6.43;;;0.90;99.90;;;;;;4960693;28;20044;-63
2023/03/15 06:38:27;;;;;;;12.43;7.00;;;0.90;99.90;;;;;;4958278;28;20501;-63
2023/03/15 06:41:00;;;;;;;14.25;6.43;;;0.80;99.90;;;;;;4937119;29;20043;-63
2023/03/15 06:43:34;;;;;;;12.07;5.93;;;0.80;99.90;;;;;;4943644;28;20039;-63
2023/03/15 06:46:06;;;;;;;10.48;6.63;;;0.90;99.90;;;;;;4922263;29;20040;-63
2023/03/15 06:48:39;;;;;;;14.48;6.75;;;0.80;99.90;;;;;;4945956;28;20047;-63
2023/03/15 06:51:11;;;;;;;11.13;6.47;;;0.90;99.90;;;;;;4927041;29;20126;-63
2023/03/15 06:53:38;;;;;;;10.05;6.40;;;0.90;99.90;;;;;;4951202;28;20047;-63
2023/03/15 06:56:10;;;;;;;10.93;5.80;;;1.00;99.90;;;;;;4941144;28;20056;-63
2023/03/15 06:58:42;;;;;;;12.05;6.72;;;1.10;99.90;;;;;;4946412;29;20047;-63
2023/03/15 07:01:15;;;;;;;15.27;6.63;;;1.10;99.90;;;;;;4947222;28;20058;-63
2023/03/15 07:03:47;;;;;;;13.02;6.40;;;1.20;99.90;;;;;;4958188;28;20058;-63
2023/03/15 07:06:19;;;;;;;12.27;6.20;;;1.20;99.90;;;;;;4948325;28;20057;-63
2023/03/15 07:08:51;;;;;;;11.43;5.97;;;1.20;99.90;;;;;;4936435;28;20477;-63
2023/03/15 07:11:22;;;;;;;10.30;5.88;;;1.30;99.90;;;;;;4927004;29;20052;-63
2023/03/15 07:13:54;;;;;;;10.18;5.00;;;1.30;99.90;;;;;;4947177;28;20047;-63
2023/03/15 07:16:26;;;;;;;13.57;6.88;;;1.40;99.90;;;;;;4948180;28;20052;-64
2023/03/15 07:18:58;;;;;;;12.82;7.18;;;1.40;99.90;;;;;;4951401;28;20036;-63
2023/03/15 07:21:31;;;;;;;10.73;4.65;;;1.40;99.90;;;;;;4950233;28;20530;-63
2023/03/15 07:24:03;;;;;;;7.55;4.70;;;1.50;99.90;;;;;;4925586;29;20098;-63
2023/03/15 07:26:30;;;;;;;10.70;4.53;;;1.60;99.90;;;;;;4940059;28;20047;-63
2023/03/15 07:29:02;;;;;;;13.15;5.40;;;1.60;99.90;;;;;;4943402;28;20055;-63
2023/03/15 07:31:34;;;;;;;10.23;5.10;;;1.60;99.90;;;;;;4937559;28;20040;-63
2023/03/15 07:34:05;;;;;;;8.95;3.83;;;1.70;99.90;;;;;;4940153;28;20463;-63
2023/03/15 07:36:37;;;;;;;9.00;4.30;;;1.80;99.90;;;;;;4941734;29;20087;-63
2023/03/15 07:39:09;;;;;;;10.32;4.55;;;1.80;99.90;;;;;;4946563;29;20051;-63
2023/03/15 07:41:41;;;;;;;7.90;3.80;;;1.90;99.90;;;;;;4936912;28;20416;-63
2023/03/15 07:44:20;;;;;;;9.55;3.60;;;1.90;99.90;;;;;;4928491;28;20048;-63
2023/03/15 07:46:53;;;;;;;9.53;3.73;;;1.90;99.90;;;;;;4939659;28;20055;-63
2023/03/15 07:49:25;;;;;;;11.95;3.65;;;2.10;99.90;;;;;;4939891;28;20055;-63
2023/03/15 07:51:57;;;;;;;8.50;3.78;;;2.10;99.90;;;;;;4941049;29;20117;-63
2023/03/15 07:54:30;;;;;;;15.95;4.15;;;2.20;99.90;;;;;;4942689;28;20055;-63
2023/03/15 07:57:02;;;;;;;10.73;4.05;;;2.20;99.90;;;;;;4938546;28;20043;-63
2023/03/15 07:59:34;;;;;;;11.95;3.90;;;2.30;99.90;;;;;;4953073;28;20046;-63
2023/03/15 08:02:06;;;;;;;10.88;3.20;;;2.40;99.90;;;;;;4962694;28;20050;-63
2023/03/15 08:04:38;;;;;;;7.30;3.20;;;2.50;99.90;;;;;;4943058;28;20067;-63
2023/03/15 08:07:10;;;;;;;8.57;2.88;;;2.60;99.90;;;;;;4926592;29;20107;-63
2023/03/15 08:09:42;;;;;;;7.45;2.65;;;2.70;99.90;;;;;;4935082;29;20056;-63
2023/03/15 08:12:14;;;;;;;8.63;2.75;;;2.60;99.90;;;;;;4939691;28;20074;-63
2023/03/15 08:14:46;;;;;;;5.63;2.55;;;2.50;99.90;;;;;;4947167;28;20074;-63
2023/03/15 08:17:18;;;;;;;13.55;3.80;;;2.50;99.90;;;;;;4928882;28;20048;-63
2023/03/15 08:19:50;;;;;;;8.50;2.70;;;2.50;99.90;;;;;;4950910;28;20093;-63
2023/03/15 08:22:16;;;;;;;7.18;2.55;;;2.40;99.90;;;;;;4949047;28;20098;-63
2023/03/15 08:24:52;;;;;;;7.25;2.90;;;2.30;99.90;;;;;;4950203;28;20127;-63
2023/03/15 08:27:19;;;;;;;5.75;2.72;;;2.40;99.90;;;;;;4944729;28;20042;-63
2023/03/15 08:29:50;;;;;;;4.95;3.08;;;2.30;99.90;;;;;;4950344;28;20050;-63
2023/03/15 08:32:22;;;;;;;6.88;2.67;;;2.30;99.90;;;;;;4952686;28;20062;-63
2023/03/15 08:34:54;;;;;;;8.57;2.58;;;2.30;99.90;;;;;;4943261;28;20095;-63
2023/03/15 08:37:26;;;;;;;3.45;2.40;;;2.30;99.90;;;;;;4945019;28;20504;-63
2023/03/15 08:40:07;;;;;;;5.25;2.20;;;2.40;99.90;;;;;;4946653;28;20074;-62
2023/03/15 08:42:36;;;;;;;4.63;2.30;;;2.40;99.90;;;;;;4954481;28;20056;-63
2023/03/15 08:45:05;;;;;;;4.43;2.17;;;2.40;99.90;;;;;;4950251;28;20126;-63
2023/03/15 08:47:34;;;;;;;6.45;2.17;;;2.40;99.90;;;;;;4960040;28;20038;-65
2023/03/15 08:50:12;;;;;;;3.75;1.95;;;2.60;99.90;;;;;;4946856;28;20058;-63
2023/03/15 08:52:44;;;;;;;6.63;1.95;;;2.80;99.90;;;;;;4945689;28;20044;-63
2023/03/15 08:55:17;;;;;;;5.82;2.13;;;3.00;99.90;;;;;;4948637;28;20044;-63
2023/03/15 08:57:49;;;;;;;7.45;1.83;;;3.20;99.90;;;;;;4958073;28;20164;-62
2023/03/15 09:00:22;;;;;;;6.07;2.15;;;3.10;99.90;;;;;;4953954;28;20452;-63
2023/03/15 09:02:54;;;;;;;4.38;1.85;;;3.20;99.90;;;;;;4945314;28;20046;-63
2023/03/15 09:05:26;;;;;;;4.55;2.17;;;3.30;99.90;;;;;;4940584;28;20058;-63
2023/03/15 09:07:59;;;;;;;6.50;2.20;;;3.50;99.90;;;;;;4945111;29;20401;-63
2023/03/15 09:10:33;;;;;;;7.93;2.40;;;3.50;99.90;;;;;;4924183;29;20138;-63
2023/03/15 09:13:05;;;;;;;5.60;1.80;;;3.40;99.90;;;;;;4950443;28;20055;-63
2023/03/15 09:15:31;;;;;;;3.83;2.42;;;3.40;99.90;;;;;;4946413;29;20750;-63
2023/03/15 09:18:03;;;;;;;6.72;1.98;;;3.50;99.90;;;;;;4940701;29;20038;-63
2023/03/15 09:20:35;;;;;;;3.47;2.47;;;3.60;99.90;;;;;;4937458;29;20082;-63
2023/03/15 09:23:07;;;;;;;8.68;2.35;;;3.80;99.90;;;;;;4944641;28;20505;-63
2023/03/15 09:25:39;;;;;;;3.65;1.63;;;3.90;99.90;;;;;;4938610;29;20043;-63
2023/03/15 09:28:11;;;;;;;5.40;2.47;;;4.00;99.90;;;;;;4947546;29;20050;-63
2023/03/15 09:30:43;;;;;;;3.97;1.83;;;3.90;99.90;;;;;;4938970;29;20049;-63
2023/03/15 09:33:14;;;;;;;4.40;2.00;;;3.90;99.90;;;;;;4939506;29;20505;-63
2023/03/15 09:35:50;;;;;;;6.53;2.08;;;3.90;99.90;;;;;;4938005;29;20428;-63
2023/03/15 09:38:22;;;;;;;4.55;1.73;;;3.90;99.90;;;;;;4946218;29;20126;-63
2023/03/15 09:40:58;;;;;;;7.18;2.00;;;4.10;99.90;;;;;;4950269;29;20040;-63
2023/03/15 09:43:56;;;;;;;6.43;2.08;;;4.20;99.90;;;;;;4951036;29;20425;-63
2023/03/15 09:46:32;;;;;;;4.93;1.65;;;4.40;99.90;;;;;;4943591;28;20091;-63
2023/03/15 09:49:24;;;;;;;3.80;1.60;;;4.50;99.90;;;;;;4957039;28;20054;-63
2023/03/15 09:52:27;;;;;;;5.75;2.10;;;4.50;99.90;;;;;;4949368;29;20051;-63
2023/03/15 09:55:14;;;;;;;4.63;2.13;;;4.40;99.90;;;;;;4940174;28;20074;-63
2023/03/15 09:57:49;;;;;;;3.78;1.13;;;4.40;99.90;;;;;;4924087;29;20039;-63
2023/03/15 10:00:37;;;;;;;10.27;2.67;;;4.40;99.90;;;;;;4946799;29;20501;-63
2023/03/15 10:03:08;;;;;;;3.40;1.60;;;4.60;99.90;;;;;;4962520;28;20047;-63
2023/03/15 10:05:46;;;;;;;5.78;1.77;;;4.70;99.90;;;;;;4934924;29;20416;-63
2023/03/15 10:08:19;;;;;;;2.30;1.25;;;4.70;99.90;;;;;;4943412;29;20047;-63
2023/03/15 10:11:23;;;;;;;3.90;1.15;;;4.70;99.90;;;;;;4944199;29;20051;-63
2023/03/15 10:14:07;;;;;;;3.00;1.60;;;4.80;99.90;;;;;;4940726;29;20067;-63
2023/03/15 10:16:37;;;;;;;2.38;1.23;;;4.80;99.90;;;;;;4943963;29;20667;-63
2023/03/15 10:19:30;;;;;;;3.33;1.30;;;4.90;99.90;;;;;;4949797;29;20039;-63
2023/03/15 10:22:18;;;;;;;2.60;1.85;;;5.00;99.90;;;;;;4933867;29;20472;-63
2023/03/15 10:25:19;;;;;;;3.55;2.35;;;5.00;99.90;;;;;;4917463;29;20040;-63
2023/03/15 10:28:22;;;;;;;2.83;1.15;;;5.00;99.90;;;;;;4934072;29;20138;-63
2023/03/15 10:30:58;;;;;;;3.17;1.10;;;5.20;99.90;;;;;;4940584;29;20055;-63
2023/03/15 10:33:33;;;;;;;3.25;1.17;;;5.30;99.90;;;;;;4954260;28;20074;-63
2023/03/15 10:36:20;;;;;;;3.67;1.25;;;5.30;99.90;;;;;;4918050;29;20142;-63
2023/03/15 10:38:52;;;;;;;2.60;1.15;;;5.20;99.90;;;;;;4944564;29;20054;-63
2023/03/15 10:41:41;;;;;;;2.03;1.00;;;5.00;99.90;;;;;;4939114;29;20047;-63
2023/03/15 10:44:22;;;;;;;2.85;1.30;;;4.90;99.90;;;;;;4950508;29;20562;-63
2023/03/15 10:47:06;;;;;;;13.10;6.65;;;5.00;99.90;;;;;;4932531;29;20147;-63
2023/03/15 10:49:43;;;;;;;2.47;1.30;;;5.20;99.90;;;;;;4946354;29;20472;-63
2023/03/15 10:52:30;;;;;;;2.28;0.98;;;5.40;99.90;;;;;;4954692;28;20591;-63
2023/03/15 10:55:27;;;;;;;2.88;1.10;;;5.60;99.90;;;;;;4957741;28;20065;-63
2023/03/15 10:58:13;;;;;;;2.33;1.20;;;5.40;99.90;;;;;;4919304;29;20044;-63
2023/03/15 11:01:06;;;;;;;3.30;1.20;;;5.40;99.90;;;;;;4945220;29;20103;-63
2023/03/15 11:03:40;;;;;;;2.55;1.30;;;5.30;99.90;;;;;;4945737;29;20039;-63
2023/03/15 11:06:23;;;;;;;3.15;1.00;;;5.30;99.90;;;;;;4927692;29;20052;-63
2023/03/15 11:09:11;;;;;;;3.15;1.10;;;5.20;99.90;;;;;;4945875;29;20497;-63
2023/03/15 11:11:57;;;;;;;4.13;1.25;;;5.50;99.90;;;;;;4945184;29;20106;-63
2023/03/15 11:14:41;;;;;;;4.13;1.23;;;5.60;99.90;;;;;;4936853;29;20421;-63
2023/03/15 11:17:23;;;;;;;3.70;1.10;;;5.40;99.90;;;;;;4943105;29;20055;-63
2023/03/15 11:20:12;;;;;;;5.75;1.20;;;5.40;99.90;;;;;;4948569;29;20042;-63
2023/03/15 11:22:39;;;;;;;;;;;5.40;99.90;;;;;;4950663;29;20027;-63
2023/03/15 11:25:13;;;;;;;1.95;1.13;;;5.50;99.90;;;;;;4944514;28;19930;-63
2023/03/15 11:27:50;;;;;;;3.88;1.52;;;5.70;99.90;;;;;;4961105;28;20051;-63
2023/03/15 11:30:30;;;;;;;6.90;1.20;;;5.80;99.90;;;;;;4938801;28;20734;-63
2023/03/15 11:33:06;;;;;;;5.63;1.60;;;6.00;99.90;;;;;;4942765;29;20110;-63
2023/03/15 11:35:52;;;;;;;3.95;1.65;;;6.10;99.90;;;;;;4937686;29;20043;-63
2023/03/15 11:38:34;;;;;;;2.70;1.20;;;6.20;99.90;;;;;;4931628;28;20468;-63
2023/03/15 11:41:28;;;;;;;3.35;1.05;;;6.30;99.90;;;;;;4925510;29;20043;-63
2023/03/15 11:44:14;;;;;;;1.98;1.05;;;6.30;99.90;;;;;;4950778;28;20035;-63
2023/03/15 11:47:12;;;;;;;5.65;1.10;;;6.30;99.90;;;;;;4943621;28;20452;-63
2023/03/15 11:49:55;;;;;;;3.13;1.17;;;6.40;99.90;;;;;;4963510;28;20051;-63
2023/03/15 11:52:28;;;;;;;3.83;2.35;;;6.30;99.90;;;;;;4952306;28;20460;-63
2023/03/15 11:55:02;;;;;;;2.42;0.95;;;6.10;99.90;;;;;;4949084;29;20054;-63
2023/03/15 11:57:56;;;;;;;4.47;1.23;;;6.00;99.90;;;;;;4943996;29;20040;-62
2023/03/15 12:00:33;;;;;;;2.83;0.82;;;5.90;99.90;;;;;;4939165;29;20043;-63
2023/03/15 12:03:43;;;;;;;2.55;0.90;;;6.00;99.90;;;;;;4931383;29;20047;-63
2023/03/15 12:06:16;;;;;;;1.98;0.95;;;6.10;99.90;;;;;;4952338;29;20039;-63
2023/03/15 12:08:51;;;;;;;4.90;1.30;;;6.50;99.90;;;;;;4941161;29;20055;-63
2023/03/15 12:11:22;;;;;;;6.97;1.73;;;6.50;99.90;;;;;;4931480;29;20062;-63
2023/03/15 12:14:00;;;;;;;1.33;0.88;;;6.60;99.90;;;;;;4961270;28;20099;-63
2023/03/15 12:16:29;;;;;;;1.13;0.83;;;6.60;99.90;;;;;;4965091;28;20409;-63
2023/03/15 12:19:09;;;;;;;2.45;0.88;;;6.80;99.90;;;;;;4948858;29;20054;-63
2023/03/15 12:21:56;;;;;;;2.22;1.30;;;6.70;99.90;;;;;;4923585;29;20044;-63
2023/03/15 12:24:37;;;;;;;2.45;0.70;;;7.00;99.90;;;;;;4931533;29;20455;-63
2023/03/15 12:27:19;;;;;;;4.10;1.20;;;7.00;99.90;;;;;;4948136;29;20044;-63
2023/03/15 12:29:59;;;;;;;3.08;0.80;;;6.80;99.90;;;;;;4953305;29;20106;-63
2023/03/15 12:32:46;;;;;;;1.63;0.80;;;6.80;99.90;;;;;;4928843;29;20074;-63
2023/03/15 12:35:20;;;;;;;2.97;0.80;;;6.80;99.90;;;;;;4930782;29;20058;-63
2023/03/15 12:37:52;;;;;;;3.03;1.00;;;7.10;99.90;;;;;;4936993;29;20047;-63
2023/03/15 12:40:21;;;;;;;2.55;0.82;;;7.10;99.90;;;;;;4961734;28;20047;-63
2023/03/15 12:42:53;;;;;;;2.38;0.70;;;7.10;99.90;;;;;;4946930;29;20040;-63
2023/03/15 12:45:39;;;;;;;1.95;0.80;;;7.10;99.90;;;;;;4950746;29;20460;-63
2023/03/15 12:48:11;;;;;;;1.75;0.90;;;7.10;99.90;;;;;;4946122;29;20051;-63
2023/03/15 12:50:43;;;;;;;1.48;1.10;;;7.10;99.90;;;;;;4948479;28;20043;-63
2023/03/15 12:53:37;;;;;;;2.92;0.90;;;7.00;99.90;;;;;;4971748;28;20611;-62
2023/03/15 12:56:53;;;;;;;1.73;0.95;;;7.00;99.90;;;;;;4954590;28;20075;-63
2023/03/15 12:59:40;;;;;;;2.08;0.70;;;7.00;99.90;;;;;;4885104;29;20091;-63
2023/03/15 13:02:32;;;;;;;2.67;0.80;;;6.90;99.90;;;;;;4886247;29;20050;-63
2023/03/15 13:05:30;;;;;;;4.43;1.00;;;7.00;99.90;;;;;;4950783;28;20062;-63
2023/03/15 13:08:23;;;;;;;2.50;0.63;;;7.00;99.60;;;;;;4941316;28;20130;-62
2023/03/15 13:10:49;;;;;;;1.65;0.80;;;7.20;99.90;;;;;;4955194;28;20035;-63
2023/03/15 13:13:39;;;;;;;1.88;0.77;;;7.20;99.40;;;;;;4928481;29;20432;-63
2023/03/15 13:16:27;;;;;;;1.35;0.68;;;7.30;98.00;;;;;;4942435;29;20043;-63
2023/03/15 13:19:04;;;;;;;1.35;0.57;;;7.50;99.50;;;;;;4959113;28;20456;-63
2023/03/15 13:21:58;;;;;;;1.05;0.77;;;7.60;95.40;;;;;;4947291;29;20127;-63
2023/03/15 13:24:46;;;;;;;3.03;0.80;;;7.80;96.40;;;;;;4942443;29;20047;-63
2023/03/15 13:27:33;;;;;;;4.88;0.60;;;8.00;98.90;;;;;;4949133;29;20440;-63
2023/03/15 13:30:35;;;;;;;1.10;0.57;;;7.80;96.10;;;;;;4949940;29;20370;-63
2023/03/15 13:33:23;;;;;;;3.10;1.10;;;7.60;92.50;;;;;;4943547;29;20126;-63
2023/03/15 13:35:56;;;;;;;1.23;0.50;;;7.30;95.70;;;;;;4947079;29;20048;-63
2023/03/15 13:38:26;;;;;;;1.67;0.70;;;7.30;94.40;;;;;;4943137;29;20183;-63
2023/03/15 13:40:54;;;;;;;1.13;0.65;;;7.20;94.80;;;;;;4950674;29;20523;-63
2023/03/15 13:43:37;;;;;;;3.25;0.63;;;7.20;94.90;;;;;;4946734;29;20091;-63
2023/03/15 13:46:09;;;;;;;1.42;0.85;;;7.00;95.20;;;;;;4939320;29;20054;-63
2023/03/15 13:48:43;;;;;;;1.38;0.77;;;6.90;95.20;;;;;;4945226;28;20051;-63
2023/03/15 13:51:21;;;;;;;1.92;0.80;;;6.80;94.90;;;;;;4944276;29;20044;-63
2023/03/15 13:54:06;;;;;;;3.42;0.80;;;6.80;95.00;;;;;;4944217;29;20043;-63